Thackerville, OK (73459)

11:34 AM CST on December 27, 2014 (GMT -0600)
North Gainesville, TX I35 Exit 501 FM1202/CR444 | Change Station
CLOSE
Current Station
Personal Weather Station
Location: Gainesville, TX
Elevation: 853 ft
Nearby Weather Stations

Elev 853 ft 33.68 °N, 97.19 °W | Updated 44 minutes ago

Overcast
Overcast
37.0 °F
Feels Like 29 °F
N
12.5
Wind Variable Wind from North

Today
High -- | Low -- °F
--% Chance of Precip.
Yesterday
High -- | Low -- °F
Precip. -- in
7:32 AM 5:27 PM
Waxing Crescent, 38% visible
Pressure 30.31 in
Visibility 10.0 miles
Clouds Overcast 1500 ft
Windchill 29 °F
Dew Point 34 °F
Humidity 87%
Rainfall 0.04 in
Snow Depth Not available.
UV 1 out of 12
Pollen 10.70 out of 12
Air Quality Not available.
Flu Activity Not available.
METAR KGLE 271715Z AUTO 33013KT 10SM OVC015 03/00 A3031 RMK AO2 T00250000

More Conditions Fewer Conditions

Pressure 30.31 in
Visibility 10.0 miles
Clouds Overcast 1500 ft
Windchill 29 °F
Dew Point 34 °F
Humidity 87%
Rainfall 0.04 in
Snow Depth Not available.
UV 1 out of 12
Pollen 10.70 out of 12
Air Quality Not available.
Flu Activity Not available.
METAR KGLE 271715Z AUTO 33013KT 10SM OVC015 03/00 A3031 RMK AO2 T00250000

More Conditions Fewer Conditions

10-Day Weather Forecast

Almanac

Astronomy

Dec. 27, 2014 Rise Set
Actual Time
Civil Twilight
Nautical Twilight
Astronomical Twilight
Moon
Length of Visible Light
Length of Day
Tomorrow will be .
, % of the Moon is Illuminated

Today's Extremes

State Highs State Lows

Community

WunderPhotos

Upload Photos

1,780,972 photos uploaded!

WunderBlogs® & News

Nearby

Air Quality

  Air Quality AQ Index Pollutant
Not available.

Snow Depth

Station Depth Elevation

Earthquake Activity

City Distance Mag. Time & Date
Minimum magnitude displayed is 2.5.

Coastal Water Temperatures

Place Temperature

Nearby Weather Stations